El Paso, TX (88531)

8:37 AM MST on December 26, 2014 (GMT -0700)
SAN CLEMENTE ESTATES | Change Station
CLOSE
Current Station
Personal Weather Station
Location: EL PASO, TX
Elevation: 4606 ft
Nearby Weather Stations

Elev 4606 ft 31.82 °N, 106.50 °W | Updated 14 seconds ago

Rain
Rain
34.2 °F
Feels Like 34 °F
N
2.0
Wind Variable Wind from WNW
Gusts 2.5 mph

Today
High -- | Low -- °F
--% Chance of Precip.
Yesterday
High -- | Low -- °F
Precip. -- in
7:03 AM 5:08 PM
Waxing Crescent, 26% visible
Pressure 29.91 in
Visibility 5.0 miles
Clouds Few 1700 ft
Mostly Cloudy 2800 ft
Overcast 5500 ft
Windchill 34 °F
Dew Point 33 °F
Humidity 96%
Rainfall 0.00 in
Snow Depth Not available.
UV 0 out of 12
Pollen 8.40 out of 12
Air Quality Not available.
Flu Activity Not available.
SPECI KELP 261459Z 31008G17KT 5SM RA FEW017 BKN028 OVC055 03/01 A2991 RMK AO2 OCNL OBSCD MT SW-NW P0001 T00330006

More Conditions Fewer Conditions

Pressure 29.91 in
Visibility 5.0 miles
Clouds Few 1700 ft
Mostly Cloudy 2800 ft
Overcast 5500 ft
Windchill 34 °F
Dew Point 33 °F
Humidity 96%
Rainfall 0.00 in
Snow Depth Not available.
UV 0 out of 12
Pollen 8.40 out of 12
Air Quality Not available.
Flu Activity Not available.
SPECI KELP 261459Z 31008G17KT 5SM RA FEW017 BKN028 OVC055 03/01 A2991 RMK AO2 OCNL OBSCD MT SW-NW P0001 T00330006

More Conditions Fewer Conditions

Nowcast | as of 7:25 am MST on December 26, 2014

At 715 am MDT...a mix of rain and snow was falling across the south central New Mexico lowlands...with moderate snow falling across the Sacramento Mountains. This wide band of precipitation extended from southeast Dona Ana County north and east across north and eastern El Paso County into western and northern Otero County. Snow was falling in parts of Las Cruces and Santa Teresa in Dona Ana County. Snow was also reported in west El Paso. A light dusting may cover grassy areas...but snow accumulation on roads across The Lowlands is not expected. Despite this roads will be slick and travel may be treacherous. In the Sacramento Mountains and some of the Gila region roads are snow packed and icy. Take extra care when traveling. A Winter Weather Advisory continues for the Sacramento Mountains until noon. Rain and snow is expected to drop south and shift east through the morning hours ending from northwest to southeast.

×

10-Day Weather Forecast

Almanac

Astronomy

Dec. 26, 2014 Rise Set
Actual Time
Civil Twilight
Nautical Twilight
Astronomical Twilight
Moon
Length of Visible Light
Length of Day
Tomorrow will be .
, % of the Moon is Illuminated

Today's Extremes

State Highs State Lows

Community

WunderPhotos

Upload Photos

1,780,608 photos uploaded!

WunderBlogs® & News

Nearby

Air Quality

  Air Quality AQ Index Pollutant
Not available.

Snow Depth

Station Depth Elevation

Earthquake Activity

City Distance Mag. Time & Date
Minimum magnitude displayed is 2.5.

Coastal Water Temperatures

Place Temperature

Nearby Weather Stations